createdAt,value
2023-06-08T13:08:09.264Z,99.90
2023-06-08T13:10:37.309Z,99.90
2023-06-08T13:13:04.527Z,99.90
2023-06-08T13:15:32.218Z,99.90
2023-06-08T13:17:59.314Z,99.90
2023-06-08T13:20:26.722Z,99.90
2023-06-08T13:22:54.302Z,99.90
2023-06-08T13:25:22.231Z,99.90
2023-06-08T13:27:51.077Z,99.90
2023-06-08T13:30:18.111Z,99.90
2023-06-08T13:32:46.336Z,99.90
2023-06-08T13:35:13.412Z,99.90
2023-06-08T13:37:40.619Z,99.90
2023-06-08T13:40:08.928Z,99.80
2023-06-08T13:42:36.961Z,98.40
2023-06-08T13:45:04.195Z,97.70
2023-06-08T13:47:30.934Z,96.90
2023-06-08T13:49:58.360Z,95.90
2023-06-08T13:52:25.331Z,95.20
2023-06-08T13:54:52.254Z,95.50
2023-06-08T13:57:19.146Z,95.50
2023-06-08T13:59:45.946Z,94.20
2023-06-08T14:02:12.776Z,93.70
2023-06-08T14:04:39.613Z,92.80
2023-06-08T14:07:06.992Z,92.20
2023-06-08T14:09:33.812Z,91.50
2023-06-08T14:12:00.915Z,90.30
2023-06-08T14:14:27.722Z,90.00
2023-06-08T14:16:54.546Z,90.60
2023-06-08T14:19:21.315Z,90.10
2023-06-08T14:21:48.177Z,90.50
2023-06-08T14:24:15.392Z,89.60
2023-06-08T14:26:42.548Z,88.00
2023-06-08T14:29:10.022Z,88.20
2023-06-08T14:31:37.144Z,87.10
2023-06-08T14:34:04.065Z,86.60
2023-06-08T14:36:31.007Z,85.30
2023-06-08T14:38:57.958Z,85.60
2023-06-08T14:41:25.523Z,84.40
2023-06-08T14:43:53.010Z,83.00
2023-06-08T14:46:21.552Z,82.50
2023-06-08T14:48:48.462Z,80.90
2023-06-08T14:51:28.401Z,79.80
2023-06-08T14:54:02.560Z,80.00
2023-06-08T14:56:29.371Z,79.60
2023-06-08T14:58:56.964Z,79.00
2023-06-08T15:01:23.779Z,79.00
2023-06-08T15:03:50.928Z,81.50
2023-06-08T15:06:17.915Z,80.60
2023-06-08T15:08:46.003Z,79.90
2023-06-08T15:11:17.186Z,79.80
2023-06-08T15:13:44.321Z,80.00
2023-06-08T15:16:12.524Z,77.80
2023-06-08T15:18:39.983Z,79.10
2023-06-08T15:21:06.953Z,79.40
2023-06-08T15:23:34.048Z,79.80
2023-06-08T15:26:01.047Z,79.30
2023-06-08T15:28:28.076Z,79.20
2023-06-08T15:30:54.981Z,79.50
2023-06-08T15:33:22.143Z,78.50
2023-06-08T15:35:49.119Z,78.80
2023-06-08T15:38:17.333Z,78.80
2023-06-08T15:40:47.519Z,78.80
2023-06-08T15:43:14.694Z,78.70
2023-06-08T15:45:42.098Z,78.10
2023-06-08T15:48:08.969Z,77.90
2023-06-08T15:50:35.801Z,77.20
2023-06-08T15:53:02.748Z,77.30
2023-06-08T15:55:29.642Z,76.60
2023-06-08T15:57:56.550Z,78.00
2023-06-08T16:00:23.493Z,80.60
2023-06-08T16:02:50.480Z,81.70
2023-06-08T16:05:17.525Z,79.80
2023-06-08T16:07:44.378Z,79.10
2023-06-08T16:10:11.482Z,79.60
2023-06-08T16:12:38.601Z,81.90
2023-06-08T16:15:06.715Z,84.10
2023-06-08T16:17:33.816Z,85.60
2023-06-08T16:20:00.740Z,86.60
2023-06-08T16:22:27.581Z,87.90
2023-06-08T16:24:54.526Z,89.70
2023-06-08T16:27:21.707Z,90.30
2023-06-08T16:29:49.600Z,90.70
2023-06-08T16:32:17.248Z,90.90
2023-06-08T16:34:44.816Z,91.00
2023-06-08T16:37:11.924Z,90.80
2023-06-08T16:39:38.854Z,91.10
2023-06-08T16:42:06.766Z,90.90
2023-06-08T16:44:33.561Z,91.10
2023-06-08T16:47:00.699Z,91.30
2023-06-08T16:49:27.601Z,91.60
2023-06-08T16:51:54.852Z,91.90
2023-06-08T16:54:21.920Z,92.00
2023-06-08T16:56:48.904Z,92.10
2023-06-08T16:59:15.856Z,92.10
2023-06-08T17:01:42.942Z,92.20
2023-06-08T17:04:10.165Z,92.20
2023-06-08T17:06:37.153Z,92.40
2023-06-08T17:09:04.187Z,92.50
2023-06-08T17:11:32.585Z,93.00
2023-06-08T17:14:00.275Z,93.10
2023-06-08T17:16:28.044Z,93.30
2023-06-08T17:18:55.579Z,93.30
2023-06-08T17:21:22.458Z,93.40
2023-06-08T17:23:49.814Z,93.40
2023-06-08T17:26:16.857Z,93.50
2023-06-08T17:28:43.787Z,93.70
2023-06-08T17:31:10.803Z,93.90
2023-06-08T17:33:38.192Z,94.00
2023-06-08T17:36:07.103Z,94.30
2023-06-08T17:38:34.155Z,94.30
2023-06-08T17:41:01.375Z,94.50
2023-06-08T17:43:30.355Z,94.50
2023-06-08T17:45:57.946Z,94.80
2023-06-08T17:48:24.969Z,95.00
2023-06-08T17:50:52.420Z,95.00
2023-06-08T17:53:19.543Z,95.10
2023-06-08T17:55:46.585Z,95.10
2023-06-08T17:58:14.602Z,95.50
2023-06-08T18:00:41.563Z,95.30
2023-06-08T18:03:09.538Z,95.50
2023-06-08T18:05:39.324Z,95.60
2023-06-08T18:08:07.508Z,95.70
2023-06-08T18:10:35.595Z,96.00
2023-06-08T18:13:03.278Z,96.10
2023-06-08T18:15:30.228Z,96.40
2023-06-08T18:17:58.200Z,96.40
2023-06-08T18:20:25.789Z,96.60
2023-06-08T18:22:52.793Z,96.80
2023-06-08T18:25:21.297Z,97.00
2023-06-08T18:27:48.487Z,97.30
2023-06-08T18:30:15.986Z,97.50
2023-06-08T18:32:42.932Z,97.50
2023-06-08T18:35:10.033Z,97.70
2023-06-08T18:37:38.588Z,97.90
2023-06-08T18:40:06.655Z,98.10
2023-06-08T18:42:34.099Z,98.10
2023-06-08T18:45:01.120Z,98.60
2023-06-08T18:47:28.176Z,98.40
2023-06-08T18:49:57.743Z,98.60
2023-06-08T18:52:24.695Z,98.70
2023-06-08T18:54:51.589Z,98.80
2023-06-08T18:57:18.551Z,98.90
2023-06-08T18:59:47.424Z,99.00
2023-06-08T19:02:14.372Z,99.20
2023-06-08T19:04:41.798Z,99.40
2023-06-08T19:07:08.706Z,99.60
2023-06-08T19:09:35.611Z,99.80
2023-06-08T19:12:03.238Z,99.80
2023-06-08T19:14:31.017Z,99.90
2023-06-08T19:16:59.611Z,99.90
2023-06-08T19:19:27.236Z,99.90
2023-06-08T19:21:55.166Z,99.90
2023-06-08T19:24:22.320Z,99.90
2023-06-08T19:26:49.179Z,99.90
2023-06-08T19:29:16.128Z,99.90
2023-06-08T19:31:43.170Z,99.90
2023-06-08T19:34:11.759Z,99.90
2023-06-08T19:36:38.649Z,99.90
2023-06-08T19:39:05.611Z,99.90
2023-06-08T19:41:34.451Z,99.90
2023-06-08T19:44:01.942Z,99.90
2023-06-08T19:46:28.915Z,99.90
2023-06-08T19:48:59.161Z,99.90
2023-06-08T19:51:27.486Z,99.90
2023-06-08T19:53:54.253Z,99.90
2023-06-08T19:56:23.149Z,99.90
2023-06-08T19:58:49.895Z,99.90
2023-06-08T20:01:18.583Z,99.90
2023-06-08T20:03:47.129Z,99.90
2023-06-08T20:06:15.000Z,99.90
2023-06-08T20:08:41.984Z,99.90
2023-06-08T20:11:08.891Z,99.90
2023-06-08T20:13:36.347Z,99.90
2023-06-08T20:16:03.495Z,99.90
2023-06-08T20:18:31.331Z,99.90
2023-06-08T20:20:59.197Z,99.90
2023-06-08T20:23:27.805Z,99.90
2023-06-08T20:25:54.616Z,99.90
2023-06-08T20:28:23.339Z,99.90
2023-06-08T20:30:50.543Z,99.90
2023-06-08T20:33:17.545Z,99.90
2023-06-08T20:35:44.464Z,99.90
2023-06-08T20:38:11.315Z,99.90
2023-06-08T20:40:38.300Z,99.90
2023-06-08T20:43:05.426Z,99.90
2023-06-08T20:45:32.377Z,99.90
2023-06-08T20:47:59.545Z,99.90
2023-06-08T20:50:26.619Z,99.90
2023-06-08T20:52:55.956Z,99.90
2023-06-08T20:55:24.489Z,99.90
2023-06-08T20:57:51.408Z,99.90
2023-06-08T21:00:18.936Z,99.90
2023-06-08T21:02:49.333Z,99.90
2023-06-08T21:05:18.815Z,99.90
2023-06-08T21:07:47.292Z,99.90
2023-06-08T21:10:15.772Z,99.90
2023-06-08T21:12:42.960Z,99.90
2023-06-08T21:15:10.130Z,99.90
2023-06-08T21:17:38.003Z,99.90
2023-06-08T21:20:05.786Z,99.90
2023-06-08T21:22:32.750Z,99.90
2023-06-08T21:24:59.699Z,99.90
2023-06-08T21:27:26.949Z,99.90
2023-06-08T21:29:54.624Z,99.90
2023-06-08T21:32:21.611Z,99.90
2023-06-08T21:34:49.506Z,99.90
2023-06-08T21:37:17.564Z,99.90
2023-06-08T21:39:44.868Z,99.90
2023-06-08T21:42:12.359Z,99.90
2023-06-08T21:44:39.441Z,99.90
2023-06-08T21:47:07.049Z,99.90
2023-06-08T21:49:34.145Z,99.90
2023-06-08T21:52:01.456Z,99.90
2023-06-08T21:54:28.446Z,99.90
2023-06-08T21:56:55.229Z,99.90
2023-06-08T21:59:22.651Z,99.90
2023-06-08T22:01:50.786Z,99.90
2023-06-08T22:04:17.888Z,99.90
2023-06-08T22:06:45.136Z,99.90
2023-06-08T22:09:12.156Z,99.90
2023-06-08T22:11:39.134Z,99.90
2023-06-08T22:14:07.221Z,99.90
2023-06-08T22:16:38.515Z,99.90
2023-06-08T22:19:07.376Z,99.90
2023-06-08T22:21:36.350Z,99.90
2023-06-08T22:24:03.758Z,99.90
2023-06-08T22:26:30.930Z,99.90
2023-06-08T22:28:57.894Z,99.90
2023-06-08T22:31:25.448Z,99.90
2023-06-08T22:33:52.555Z,99.90
2023-06-08T22:36:20.122Z,99.90
2023-06-08T22:38:47.095Z,99.90
2023-06-08T22:41:14.009Z,99.90
2023-06-08T22:43:41.129Z,99.90
2023-06-08T22:46:08.624Z,99.90
2023-06-08T22:48:37.774Z,99.90
2023-06-08T22:51:04.621Z,99.90
2023-06-08T22:53:35.036Z,99.90
2023-06-08T22:56:02.120Z,99.90
2023-06-08T22:58:28.927Z,99.90
2023-06-08T23:00:57.820Z,99.90
2023-06-08T23:03:25.824Z,99.90
2023-06-08T23:05:55.877Z,99.90
2023-06-08T23:08:23.030Z,99.90
2023-06-08T23:10:49.938Z,99.90
2023-06-08T23:13:18.386Z,99.90
2023-06-08T23:15:45.294Z,99.90
2023-06-08T23:18:13.184Z,99.90
2023-06-08T23:20:41.105Z,99.90
2023-06-08T23:23:08.048Z,99.90
2023-06-08T23:25:34.978Z,99.90
2023-06-08T23:28:02.099Z,99.90
2023-06-08T23:30:29.740Z,99.90
2023-06-08T23:32:56.747Z,99.90
2023-06-08T23:35:23.786Z,99.90
2023-06-08T23:37:50.716Z,99.90
2023-06-08T23:40:19.820Z,99.90
2023-06-08T23:42:46.831Z,99.90
2023-06-08T23:45:13.780Z,99.90
2023-06-08T23:47:42.594Z,99.90
2023-06-08T23:50:09.927Z,99.90
2023-06-08T23:52:37.566Z,99.90
2023-06-08T23:55:06.567Z,99.90
2023-06-08T23:57:33.646Z,99.90
